createdAt,value
2016-08-05T00:00:32.461Z,22.93
2016-08-05T00:01:22.247Z,22.93
2016-08-05T00:02:25.317Z,23.01
2016-08-05T00:03:18.203Z,22.93
2016-08-05T00:04:13.655Z,22.96
2016-08-05T00:05:21.949Z,22.93
2016-08-05T00:06:13.554Z,22.92
2016-08-05T00:07:21.110Z,22.92
2016-08-05T00:08:31.347Z,22.93
2016-08-05T00:09:14.883Z,22.92
2016-08-05T00:10:13.118Z,22.92
2016-08-05T00:11:32.061Z,22.92
2016-08-05T00:12:32.170Z,22.93
2016-08-05T00:13:31.422Z,22.92
2016-08-05T00:14:15.590Z,22.92
2016-08-05T00:15:24.835Z,22.93
2016-08-05T00:16:19.392Z,22.92
2016-08-05T00:17:31.947Z,22.92
2016-08-05T00:18:32.307Z,22.93
2016-08-05T00:19:14.453Z,22.92
2016-08-05T00:20:34.651Z,22.92
2016-08-05T00:21:21.610Z,22.92
2016-08-05T00:22:24.492Z,22.92
2016-08-05T00:23:14.631Z,22.95
2016-08-05T00:24:36.804Z,22.97
2016-08-05T00:26:30.892Z,23.45
2016-08-05T00:27:24.737Z,23.51
2016-08-05T00:28:26.521Z,23.54
2016-08-05T00:29:25.738Z,23.53
2016-08-05T00:30:13.044Z,23.55
2016-08-05T00:31:21.929Z,23.55
2016-08-05T00:32:12.645Z,23.57
2016-08-05T00:33:14.023Z,23.57
2016-08-05T00:34:36.972Z,23.57
2016-08-05T00:35:34.107Z,23.58
2016-08-05T00:36:14.556Z,23.56
2016-08-05T00:37:27.024Z,23.57
2016-08-05T00:38:21.408Z,23.56
2016-08-05T00:39:22.908Z,23.04
2016-08-05T00:40:25.884Z,22.98
2016-08-05T00:41:13.802Z,22.95
2016-08-05T00:42:13.108Z,22.94
2016-08-05T00:43:11.556Z,22.92
2016-08-05T00:44:26.354Z,23.46
2016-08-05T00:45:29.946Z,23.51
2016-08-05T00:46:37.911Z,23.54
2016-08-05T00:47:34.570Z,23.56
2016-08-05T00:48:14.720Z,23.55
2016-08-05T00:49:13.327Z,23.55
2016-08-05T00:50:14.151Z,23.56
2016-08-05T00:51:28.210Z,23.55
2016-08-05T00:52:31.913Z,23.21
2016-08-05T00:53:12.962Z,23.04
2016-08-05T00:54:26.805Z,22.98
2016-08-05T00:55:32.738Z,22.95
2016-08-05T00:56:39.422Z,22.93
2016-08-05T00:57:11.419Z,22.93
2016-08-05T00:58:12.677Z,22.95
2016-08-05T00:59:26.673Z,22.93
2016-08-05T01:00:12.701Z,22.92
2016-08-05T01:01:20.137Z,22.92
2016-08-05T01:02:35.101Z,22.92
2016-08-05T01:03:12.560Z,22.92
2016-08-05T01:04:11.428Z,22.91
2016-08-05T01:05:27.539Z,22.91
2016-08-05T01:06:14.604Z,22.91
2016-08-05T01:07:34.715Z,22.91
2016-08-05T01:08:13.383Z,22.91
2016-08-05T01:09:15.374Z,22.91
2016-08-05T01:10:12.096Z,22.91
2016-08-05T01:11:34.010Z,22.93
2016-08-05T01:12:15.116Z,23.44
2016-08-05T01:13:22.198Z,23.50
2016-08-05T01:14:37.937Z,23.16
2016-08-05T01:15:13.507Z,23.01
2016-08-05T01:16:15.771Z,22.95
2016-08-05T01:17:16.008Z,23.00
2016-08-05T01:18:31.419Z,22.92
2016-08-05T01:19:25.304Z,22.92
2016-08-05T01:20:13.860Z,22.92
2016-08-05T01:21:27.984Z,22.93
2016-08-05T01:22:14.273Z,22.91
2016-08-05T01:23:13.368Z,22.94
2016-08-05T01:24:19.351Z,22.91
2016-08-05T01:25:12.232Z,22.91
2016-08-05T01:26:22.217Z,22.92
2016-08-05T01:27:10.644Z,22.90
2016-08-05T01:28:25.759Z,22.91
2016-08-05T01:29:12.351Z,22.91
2016-08-05T01:30:34.501Z,22.91
2016-08-05T01:31:12.639Z,22.91
2016-08-05T01:32:33.915Z,22.91
2016-08-05T01:33:27.403Z,22.94
2016-08-05T01:34:32.480Z,22.91
2016-08-05T01:35:27.982Z,22.91
2016-08-05T01:36:16.328Z,22.90
2016-08-05T01:37:42.431Z,22.93
2016-08-05T01:38:32.252Z,22.90
2016-08-05T01:39:16.135Z,22.90
2016-08-05T01:40:37.950Z,22.90
2016-08-05T01:41:22.967Z,22.90
2016-08-05T01:42:14.440Z,22.90
2016-08-05T01:43:29.987Z,22.90
2016-08-05T01:44:16.438Z,22.90
2016-08-05T01:45:25.631Z,22.90
2016-08-05T01:46:25.510Z,22.90
2016-08-05T01:47:14.531Z,22.90
2016-08-05T01:48:28.581Z,22.90
2016-08-05T01:49:21.847Z,22.90
2016-08-05T01:50:14.863Z,22.90
2016-08-05T01:51:26.732Z,22.91
2016-08-05T01:52:31.035Z,22.89
2016-08-05T01:53:14.178Z,22.90
2016-08-05T01:54:13.044Z,22.89
2016-08-05T01:55:32.529Z,22.90
2016-08-05T01:56:38.471Z,22.89
2016-08-05T01:57:15.812Z,22.90
2016-08-05T01:58:33.753Z,22.90
2016-08-05T01:59:17.704Z,22.89
2016-08-05T02:00:20.370Z,22.89
2016-08-05T02:01:31.462Z,22.90
2016-08-05T02:02:30.799Z,22.89
2016-08-05T02:03:11.210Z,22.89
2016-08-05T02:04:26.440Z,22.89
2016-08-05T02:05:13.408Z,22.90
2016-08-05T02:06:13.847Z,22.89
2016-08-05T02:07:24.532Z,22.90
2016-08-05T02:08:14.236Z,22.90
2016-08-05T02:09:38.324Z,22.89
2016-08-05T02:10:34.434Z,22.96
2016-08-05T02:11:23.736Z,23.42
2016-08-05T02:12:14.560Z,23.48
2016-08-05T02:13:18.219Z,23.50
2016-08-05T02:14:14.072Z,23.52
2016-08-05T02:15:31.311Z,23.15
2016-08-05T02:16:29.733Z,23.00
2016-08-05T02:17:28.833Z,22.94
2016-08-05T02:18:13.950Z,22.91
2016-08-05T02:19:13.758Z,22.90
2016-08-05T02:20:24.836Z,22.90
2016-08-05T02:21:23.787Z,22.91
2016-08-05T02:22:22.520Z,22.90
2016-08-05T02:23:20.213Z,22.89
2016-08-05T02:24:16.777Z,22.90
2016-08-05T02:25:12.914Z,22.89
2016-08-05T02:26:27.183Z,22.89
2016-08-05T02:27:12.852Z,22.89
2016-08-05T02:28:20.392Z,22.89
2016-08-05T02:29:23.700Z,22.90
2016-08-05T02:30:25.057Z,22.89
2016-08-05T02:31:28.068Z,22.88
2016-08-05T02:32:21.772Z,22.89
2016-08-05T02:33:25.977Z,22.89
2016-08-05T02:34:25.826Z,22.89
2016-08-05T02:35:27.820Z,22.89
2016-08-05T02:36:17.134Z,22.89
2016-08-05T02:37:20.968Z,22.89
2016-08-05T02:38:17.304Z,22.89
2016-08-05T02:39:27.169Z,22.89
2016-08-05T02:40:21.816Z,22.89
2016-08-05T02:41:22.296Z,22.89
2016-08-05T02:42:23.684Z,22.89
2016-08-05T02:43:27.147Z,22.89
2016-08-05T02:44:20.131Z,22.89
2016-08-05T02:45:26.098Z,22.89
2016-08-05T02:46:22.098Z,22.88
2016-08-05T02:47:28.176Z,22.91
2016-08-05T02:48:12.535Z,23.42
2016-08-05T02:49:27.109Z,23.47
2016-08-05T02:50:14.739Z,23.49
2016-08-05T02:51:32.931Z,23.51
2016-08-05T02:52:28.347Z,23.52
2016-08-05T02:53:31.127Z,23.52
2016-08-05T02:54:30.992Z,23.52
2016-08-05T02:55:19.980Z,23.53
2016-08-05T02:56:18.964Z,23.54
2016-08-05T02:57:27.678Z,23.53
2016-08-05T02:58:34.798Z,23.53
2016-08-05T02:59:11.658Z,23.54
2016-08-05T03:00:17.111Z,23.54
2016-08-05T03:01:25.328Z,23.53
2016-08-05T03:02:30.196Z,23.54
2016-08-05T03:03:13.651Z,23.22
2016-08-05T03:04:36.090Z,23.00
2016-08-05T03:05:20.915Z,22.95
2016-08-05T03:06:16.974Z,22.92
2016-08-05T03:07:27.742Z,22.91
2016-08-05T03:08:24.702Z,22.90
2016-08-05T03:09:32.692Z,22.89
2016-08-05T03:11:30.056Z,22.89
2016-08-05T03:12:34.309Z,22.88
2016-08-05T03:13:26.982Z,22.89
2016-08-05T03:14:20.056Z,22.88
2016-08-05T03:15:12.820Z,22.89
2016-08-05T03:16:25.375Z,22.89
2016-08-05T03:17:12.775Z,22.90
2016-08-05T03:18:28.890Z,22.89
2016-08-05T03:19:31.034Z,22.89
2016-08-05T03:20:13.584Z,22.89
2016-08-05T03:21:26.321Z,22.89
2016-08-05T03:22:26.474Z,22.89
2016-08-05T03:23:22.954Z,22.88
2016-08-05T03:24:31.899Z,22.89
2016-08-05T03:25:13.850Z,22.88
2016-08-05T03:26:27.405Z,22.89
2016-08-05T03:27:28.098Z,22.89
2016-08-05T03:28:31.090Z,22.90
2016-08-05T03:29:38.034Z,22.88
2016-08-05T03:30:14.935Z,22.88
2016-08-05T03:31:27.231Z,22.89
2016-08-05T03:32:11.290Z,22.88
2016-08-05T03:33:21.542Z,23.41
2016-08-05T03:34:12.725Z,23.47
2016-08-05T03:35:31.812Z,23.50
2016-08-05T03:36:27.268Z,23.51
2016-08-05T03:37:21.447Z,23.53
2016-08-05T03:38:32.605Z,23.52
2016-08-05T03:39:28.228Z,23.53
2016-08-05T03:40:25.325Z,23.53
2016-08-05T03:41:27.219Z,23.53
2016-08-05T03:42:20.820Z,23.54
2016-08-05T03:43:26.739Z,23.54
2016-08-05T03:44:33.504Z,23.54
2016-08-05T03:45:14.385Z,23.53
2016-08-05T03:46:13.281Z,23.53
2016-08-05T03:47:30.593Z,23.53
2016-08-05T03:48:29.392Z,23.53
2016-08-05T03:49:26.788Z,23.53
2016-08-05T03:50:22.349Z,23.53
2016-08-05T03:51:12.734Z,23.53
2016-08-05T03:52:21.120Z,23.54
2016-08-05T03:53:27.361Z,23.53
2016-08-05T03:54:26.084Z,23.01
2016-08-05T03:55:29.028Z,22.97
2016-08-05T03:56:18.571Z,22.91
2016-08-05T03:57:19.975Z,22.90
2016-08-05T03:58:35.106Z,22.89
2016-08-05T03:59:21.173Z,22.88
2016-08-05T04:00:18.077Z,22.88
2016-08-05T04:01:18.125Z,22.88
2016-08-05T04:02:19.784Z,22.88
2016-08-05T04:03:12.499Z,22.88
2016-08-05T04:04:20.410Z,22.88
2016-08-05T04:05:26.509Z,22.87
2016-08-05T04:06:33.764Z,22.91
2016-08-05T04:07:39.401Z,22.88
2016-08-05T04:08:11.653Z,22.87
2016-08-05T04:09:19.456Z,23.40
2016-08-05T04:10:16.229Z,23.47
2016-08-05T04:11:15.433Z,23.49
2016-08-05T04:12:13.908Z,23.18
2016-08-05T04:13:12.640Z,22.98
2016-08-05T04:14:14.392Z,22.93
2016-08-05T04:15:20.046Z,22.90
2016-08-05T04:16:39.598Z,22.89
2016-08-05T04:17:25.108Z,22.89
2016-08-05T04:18:16.317Z,22.89
2016-08-05T04:19:23.385Z,22.88
2016-08-05T04:20:33.038Z,22.89
2016-08-05T04:21:30.792Z,22.88
2016-08-05T04:22:22.928Z,22.88
2016-08-05T04:23:35.502Z,22.90
2016-08-05T04:24:13.243Z,22.89
2016-08-05T04:25:18.556Z,22.88
2016-08-05T04:26:15.321Z,22.88
2016-08-05T04:27:30.851Z,22.88
2016-08-05T04:28:26.109Z,22.88
2016-08-05T04:29:19.745Z,22.88
2016-08-05T04:30:12.466Z,22.88
2016-08-05T04:31:38.235Z,22.87
2016-08-05T04:32:27.464Z,22.87
2016-08-05T04:33:34.882Z,22.88
2016-08-05T04:34:27.565Z,22.88
2016-08-05T04:35:34.293Z,22.86
2016-08-05T04:36:32.311Z,22.88
2016-08-05T04:37:27.650Z,22.88
2016-08-05T04:38:13.372Z,22.87
2016-08-05T04:39:16.557Z,22.88
2016-08-05T04:40:30.729Z,22.88
2016-08-05T04:41:21.697Z,22.88
2016-08-05T04:42:34.681Z,22.88
2016-08-05T04:43:31.724Z,22.87
2016-08-05T04:44:11.064Z,22.88
2016-08-05T04:45:15.888Z,22.88
2016-08-05T04:46:33.797Z,22.87
2016-08-05T04:47:30.437Z,22.88
2016-08-05T04:48:12.073Z,22.88
2016-08-05T04:49:12.980Z,22.88
2016-08-05T04:50:23.039Z,22.89
2016-08-05T04:51:29.585Z,22.87
2016-08-05T04:52:11.863Z,22.87
2016-08-05T04:53:12.912Z,22.88
2016-08-05T04:54:24.516Z,22.86
2016-08-05T04:55:29.020Z,22.87
2016-08-05T04:56:29.040Z,22.88
2016-08-05T04:57:25.643Z,22.87
2016-08-05T04:58:12.424Z,22.87
2016-08-05T04:59:28.170Z,22.94
2016-08-05T05:00:10.985Z,22.87
2016-08-05T05:01:27.865Z,23.41
2016-08-05T05:02:27.483Z,23.45
2016-08-05T05:03:13.373Z,23.49
2016-08-05T05:04:26.029Z,23.50
2016-08-05T05:05:23.900Z,23.50
2016-08-05T05:06:30.892Z,23.51
2016-08-05T05:07:22.416Z,23.51
2016-08-05T05:08:21.861Z,23.52
2016-08-05T05:09:17.581Z,23.52
2016-08-05T05:10:12.372Z,23.52
2016-08-05T05:11:34.586Z,23.52
2016-08-05T05:12:27.379Z,23.52
2016-08-05T05:13:14.949Z,23.52
2016-08-05T05:14:23.317Z,23.17
2016-08-05T05:15:25.872Z,22.99
2016-08-05T05:16:27.681Z,22.93
2016-08-05T05:17:28.872Z,22.91
2016-08-05T05:18:26.112Z,22.90
2016-08-05T05:19:31.589Z,22.89
2016-08-05T05:20:31.943Z,22.88
2016-08-05T05:21:33.608Z,22.93
2016-08-05T05:22:21.338Z,22.92
2016-08-05T05:23:31.863Z,22.88
2016-08-05T05:24:15.955Z,22.87
2016-08-05T05:25:11.899Z,22.87
2016-08-05T05:26:16.224Z,22.87
2016-08-05T05:27:25.958Z,22.87
2016-08-05T05:28:33.656Z,22.87
2016-08-05T05:29:27.241Z,22.87
2016-08-05T05:30:32.054Z,22.87
2016-08-05T05:31:32.298Z,22.87
2016-08-05T05:32:27.117Z,22.87
2016-08-05T05:33:16.845Z,22.87
2016-08-05T05:34:32.154Z,22.87
2016-08-05T05:35:32.270Z,22.87
2016-08-05T05:36:26.396Z,22.87
2016-08-05T05:37:17.739Z,22.86
2016-08-05T05:38:27.179Z,22.86
2016-08-05T05:39:33.927Z,22.87
2016-08-05T05:40:21.118Z,22.87
2016-08-05T05:41:20.299Z,22.87
2016-08-05T05:42:22.511Z,22.86
2016-08-05T05:43:12.966Z,22.87
2016-08-05T05:44:20.509Z,22.92
2016-08-05T05:45:13.708Z,22.87
2016-08-05T05:46:15.954Z,22.86
2016-08-05T05:47:13.624Z,22.87
2016-08-05T05:48:11.160Z,22.85
2016-08-05T05:49:18.237Z,22.88
2016-08-05T05:50:16.308Z,22.87
2016-08-05T05:51:13.607Z,22.87
2016-08-05T05:52:14.869Z,22.86
2016-08-05T05:53:14.354Z,22.86
2016-08-05T05:54:17.533Z,22.87
2016-08-05T05:55:21.434Z,22.86
2016-08-05T05:56:13.657Z,22.86
2016-08-05T05:57:13.162Z,22.85
2016-08-05T05:58:15.402Z,23.39
2016-08-05T05:59:16.447Z,23.43
2016-08-05T06:00:14.319Z,23.11
2016-08-05T06:01:19.276Z,22.97
2016-08-05T06:02:16.627Z,22.90
2016-08-05T06:03:17.420Z,22.88
2016-08-05T06:04:18.363Z,22.87
2016-08-05T06:05:15.598Z,22.95
2016-08-05T06:06:15.248Z,23.40
2016-08-05T06:07:23.168Z,23.12
2016-08-05T06:08:21.544Z,22.93
2016-08-05T06:09:14.776Z,22.90
2016-08-05T06:10:16.650Z,22.88
2016-08-05T06:11:15.855Z,22.88
2016-08-05T06:12:15.518Z,22.86
2016-08-05T06:13:13.442Z,22.87
2016-08-05T06:14:13.548Z,22.86
2016-08-05T06:15:18.566Z,22.86
2016-08-05T06:16:25.880Z,22.86
2016-08-05T06:17:17.767Z,22.86
2016-08-05T06:18:29.281Z,22.86
2016-08-05T06:19:26.724Z,22.86
2016-08-05T06:20:17.024Z,22.88
2016-08-05T06:21:33.510Z,22.88
2016-08-05T06:22:25.486Z,22.88
2016-08-05T06:23:18.217Z,22.90
2016-08-05T06:24:27.084Z,22.89
2016-08-05T06:25:15.880Z,22.89
2016-08-05T06:27:18.397Z,22.90
2016-08-05T06:28:28.269Z,22.80
2016-08-05T06:29:10.792Z,22.89
2016-08-05T06:30:12.011Z,22.90
2016-08-05T06:31:34.210Z,22.88
2016-08-05T06:32:13.703Z,22.89
2016-08-05T06:33:22.412Z,22.89
2016-08-05T06:34:23.393Z,22.89
2016-08-05T06:35:26.733Z,22.89
2016-08-05T06:36:19.712Z,22.95
2016-08-05T06:37:26.886Z,22.89
2016-08-05T06:38:31.900Z,22.86
2016-08-05T06:39:21.257Z,22.87
2016-08-05T06:40:23.404Z,22.89
2016-08-05T06:42:15.777Z,22.92
2016-08-05T06:43:12.756Z,22.93
2016-08-05T06:44:18.168Z,22.93
2016-08-05T06:45:16.500Z,22.94
2016-08-05T06:46:16.334Z,22.95
2016-08-05T06:47:27.604Z,22.94
2016-08-05T06:48:21.798Z,23.02
2016-08-05T06:49:21.511Z,22.97
2016-08-05T06:50:27.730Z,23.01
2016-08-05T06:51:23.170Z,23.00
2016-08-05T06:52:21.413Z,23.00
2016-08-05T06:53:11.820Z,23.01
2016-08-05T06:54:12.488Z,23.02
2016-08-05T06:55:26.971Z,23.03
2016-08-05T06:57:18.304Z,23.02
2016-08-05T06:58:12.147Z,23.02
2016-08-05T06:59:20.109Z,23.02
2016-08-05T07:00:25.761Z,23.03
2016-08-05T07:01:22.171Z,23.03
2016-08-05T07:02:33.213Z,23.04
2016-08-05T07:03:16.743Z,23.05
2016-08-05T07:04:13.455Z,23.05
2016-08-05T07:05:21.346Z,23.05
2016-08-05T07:06:29.381Z,23.06
2016-08-05T07:07:12.550Z,23.07
2016-08-05T07:08:12.029Z,23.06
2016-08-05T07:09:15.832Z,23.06
2016-08-05T07:10:19.643Z,23.06
2016-08-05T07:11:25.589Z,23.04
2016-08-05T07:12:21.777Z,23.03
2016-08-05T07:13:12.629Z,23.02
2016-08-05T07:14:16.424Z,23.00
2016-08-05T07:15:18.149Z,22.98
2016-08-05T07:16:25.112Z,23.13
2016-08-05T07:17:14.658Z,23.00
2016-08-05T07:18:13.521Z,22.96
2016-08-05T07:19:19.004Z,22.94
2016-08-05T07:20:31.670Z,22.97
2016-08-05T07:21:11.042Z,22.92
2016-08-05T07:22:27.367Z,22.95
2016-08-05T07:23:14.998Z,22.96
2016-08-05T07:24:27.650Z,22.97
2016-08-05T07:25:25.782Z,23.01
2016-08-05T07:27:22.625Z,23.07
2016-08-05T07:28:26.015Z,23.01
2016-08-05T07:29:22.652Z,23.00
2016-08-05T07:30:22.560Z,22.98
2016-08-05T07:31:27.099Z,23.00
2016-08-05T07:32:25.784Z,23.49
2016-08-05T07:33:13.412Z,23.55
2016-08-05T07:34:27.036Z,23.57
2016-08-05T07:35:27.121Z,23.59
2016-08-05T07:36:23.059Z,23.59
2016-08-05T07:37:28.269Z,23.58
2016-08-05T07:38:20.139Z,23.21
2016-08-05T07:39:12.309Z,23.03
2016-08-05T07:40:29.945Z,22.98
2016-08-05T07:41:17.452Z,23.03
2016-08-05T07:42:26.400Z,23.46
2016-08-05T07:43:26.408Z,23.51
2016-08-05T07:44:33.554Z,23.51
2016-08-05T07:45:22.800Z,23.52
2016-08-05T07:46:26.946Z,22.99
2016-08-05T07:47:27.017Z,22.94
2016-08-05T07:48:13.125Z,22.91
2016-08-05T07:49:22.133Z,22.89
2016-08-05T07:50:19.998Z,22.88
2016-08-05T07:51:25.866Z,22.87
2016-08-05T07:52:29.025Z,22.93
2016-08-05T07:53:30.748Z,22.86
2016-08-05T07:54:13.376Z,22.89
2016-08-05T07:55:12.616Z,22.85
2016-08-05T07:56:12.695Z,22.85
2016-08-05T07:57:13.398Z,22.85
2016-08-05T07:58:15.309Z,22.84
2016-08-05T07:59:28.136Z,22.89
2016-08-05T08:00:15.280Z,22.83
2016-08-05T08:01:26.136Z,22.83
2016-08-05T08:02:32.193Z,22.82
2016-08-05T08:03:25.217Z,22.82
2016-08-05T08:04:25.837Z,22.83
2016-08-05T08:05:24.136Z,22.80
2016-08-05T08:06:16.108Z,22.81
2016-08-05T08:07:23.097Z,22.81
2016-08-05T08:08:26.370Z,22.81
2016-08-05T08:09:27.919Z,22.81
2016-08-05T08:10:34.627Z,22.81
2016-08-05T08:11:34.549Z,22.80
2016-08-05T08:12:19.709Z,22.81
2016-08-05T08:13:20.950Z,22.80
2016-08-05T08:14:17.363Z,22.80
2016-08-05T08:15:21.677Z,22.79
2016-08-05T08:16:12.960Z,23.33
2016-08-05T08:17:20.936Z,23.37
2016-08-05T08:18:20.462Z,22.87
2016-08-05T08:19:17.808Z,22.83
2016-08-05T08:20:17.206Z,22.81
2016-08-05T08:21:22.781Z,22.80
2016-08-05T08:22:20.447Z,22.79
2016-08-05T08:23:32.071Z,22.77
2016-08-05T08:24:28.137Z,22.78
2016-08-05T08:25:26.967Z,22.78
2016-08-05T08:26:21.245Z,22.79
2016-08-05T08:27:25.545Z,22.78
2016-08-05T08:28:22.195Z,22.77
2016-08-05T08:29:23.097Z,22.77
2016-08-05T08:30:32.868Z,22.78
2016-08-05T08:31:31.953Z,22.76
2016-08-05T08:32:26.209Z,22.77
2016-08-05T08:33:25.810Z,22.76
2016-08-05T08:34:29.406Z,22.77
2016-08-05T08:35:22.386Z,22.76
2016-08-05T08:36:13.016Z,22.75
2016-08-05T08:37:22.777Z,22.75
2016-08-05T08:38:22.134Z,22.75
2016-08-05T08:39:29.833Z,22.76
2016-08-05T08:40:31.758Z,22.74
2016-08-05T08:42:26.567Z,22.75
2016-08-05T08:43:31.107Z,22.77
2016-08-05T08:44:23.824Z,22.79
2016-08-05T08:45:27.813Z,22.74
2016-08-05T08:46:13.344Z,22.76
2016-08-05T08:47:32.828Z,22.76
2016-08-05T08:48:27.306Z,23.26
2016-08-05T08:49:31.244Z,23.31
2016-08-05T08:50:27.135Z,23.32
2016-08-05T08:51:21.644Z,23.34
2016-08-05T08:52:27.862Z,23.37
2016-08-05T08:53:26.815Z,23.36
2016-08-05T08:54:27.158Z,23.36
2016-08-05T08:55:23.115Z,23.34
2016-08-05T08:57:25.777Z,23.34
2016-08-05T08:58:22.213Z,23.34
2016-08-05T08:59:22.947Z,23.02
2016-08-05T09:00:21.421Z,22.81
2016-08-05T09:01:22.134Z,22.75
2016-08-05T09:02:20.240Z,22.74
2016-08-05T09:03:27.839Z,22.72
2016-08-05T09:04:16.288Z,22.71
2016-08-05T09:05:27.144Z,22.70
2016-08-05T09:06:25.631Z,22.68
2016-08-05T09:07:16.675Z,22.69
2016-08-05T09:08:32.784Z,22.76
2016-08-05T09:09:21.562Z,22.70
2016-08-05T09:10:25.950Z,22.69
2016-08-05T09:12:26.150Z,22.67
2016-08-05T09:13:13.238Z,22.68
2016-08-05T09:14:22.515Z,22.68
2016-08-05T09:15:23.070Z,22.68
2016-08-05T09:16:26.104Z,22.68
2016-08-05T09:17:33.229Z,22.67
2016-08-05T09:18:23.689Z,22.67
2016-08-05T09:19:31.980Z,22.67
2016-08-05T09:20:28.615Z,22.67
2016-08-05T09:21:21.919Z,22.70
2016-08-05T09:22:27.134Z,22.65
2016-08-05T09:23:21.778Z,22.67
2016-08-05T09:24:21.794Z,22.65
2016-08-05T09:25:23.068Z,22.65
2016-08-05T09:27:23.771Z,22.65
2016-08-05T09:28:16.563Z,22.64
2016-08-05T09:29:27.728Z,23.18
2016-08-05T09:30:26.358Z,22.96
2016-08-05T09:31:24.586Z,22.74
2016-08-05T09:32:29.565Z,22.68
2016-08-05T09:33:29.122Z,22.66
2016-08-05T09:34:28.469Z,22.66
2016-08-05T09:35:27.390Z,22.64
2016-08-05T09:36:22.827Z,22.64
2016-08-05T09:37:22.071Z,22.64
2016-08-05T09:38:27.285Z,22.63
2016-08-05T09:39:26.819Z,22.64
2016-08-05T09:40:21.364Z,22.63
2016-08-05T09:41:18.782Z,22.65
2016-08-05T09:42:22.142Z,22.64
2016-08-05T09:43:26.791Z,22.63
2016-08-05T09:44:26.555Z,22.62
2016-08-05T09:45:22.824Z,22.63
2016-08-05T09:46:22.038Z,22.64
2016-08-05T09:47:28.784Z,22.65
2016-08-05T09:48:22.599Z,22.67
2016-08-05T09:49:29.635Z,22.71
2016-08-05T09:50:27.050Z,22.72
2016-08-05T09:51:21.790Z,22.71
2016-08-05T09:52:32.679Z,22.70
2016-08-05T09:53:15.755Z,22.79
2016-08-05T09:54:12.489Z,23.23
2016-08-05T09:55:22.651Z,23.27
2016-08-05T09:56:26.611Z,23.31
2016-08-05T09:57:23.831Z,23.32
2016-08-05T09:58:27.132Z,23.32
2016-08-05T09:59:28.459Z,23.32
2016-08-05T10:00:22.878Z,23.32
2016-08-05T10:01:12.178Z,23.31
2016-08-05T10:02:15.906Z,22.79
2016-08-05T10:03:20.162Z,22.74
2016-08-05T10:04:11.035Z,22.70
2016-08-05T10:05:31.465Z,22.69
2016-08-05T10:06:13.055Z,22.68
2016-08-05T10:07:12.384Z,22.67
2016-08-05T10:08:23.457Z,22.67
2016-08-05T10:09:20.892Z,22.67
2016-08-05T10:10:21.593Z,22.67
2016-08-05T10:11:24.973Z,22.67
2016-08-05T10:12:17.623Z,22.66
2016-08-05T10:13:25.430Z,22.66
2016-08-05T10:14:26.808Z,22.65
2016-08-05T10:15:23.231Z,22.66
2016-08-05T10:16:15.832Z,22.64
2016-08-05T10:17:26.967Z,22.65
2016-08-05T10:18:24.349Z,22.67
2016-08-05T10:19:27.012Z,22.65
2016-08-05T10:20:25.789Z,22.65
2016-08-05T10:21:14.008Z,22.66
2016-08-05T10:22:27.606Z,22.64
2016-08-05T10:23:25.884Z,22.65
2016-08-05T10:24:21.216Z,22.65
2016-08-05T10:25:25.885Z,23.17
2016-08-05T10:26:14.143Z,23.22
2016-08-05T10:27:14.293Z,23.25
2016-08-05T10:28:13.432Z,22.91
2016-08-05T10:29:13.109Z,22.74
2016-08-05T10:30:14.611Z,22.69
2016-08-05T10:31:19.131Z,22.66
2016-08-05T10:32:20.842Z,22.64
2016-08-05T10:33:20.096Z,22.65
2016-08-05T10:34:19.748Z,22.65
2016-08-05T10:35:20.735Z,22.64
2016-08-05T10:36:21.072Z,22.64
2016-08-05T10:37:21.465Z,22.62
2016-08-05T10:38:25.825Z,22.63
2016-08-05T10:39:22.455Z,22.62
2016-08-05T10:40:23.515Z,22.62
2016-08-05T10:41:29.160Z,22.62
2016-08-05T10:42:19.881Z,22.64
2016-08-05T10:43:14.056Z,22.61
2016-08-05T10:44:20.817Z,22.62
2016-08-05T10:45:23.945Z,22.62
2016-08-05T10:46:12.982Z,22.64
2016-08-05T10:47:20.757Z,22.62
2016-08-05T10:48:22.012Z,22.67
2016-08-05T10:49:26.101Z,22.61
2016-08-05T10:50:26.814Z,22.61
2016-08-05T10:51:13.659Z,22.60
2016-08-05T10:52:26.102Z,22.61
2016-08-05T10:53:27.132Z,22.63
2016-08-05T10:54:25.956Z,22.60
2016-08-05T10:55:25.131Z,22.63
2016-08-05T10:56:25.977Z,22.60
2016-08-05T10:57:14.897Z,22.60
2016-08-05T10:58:23.833Z,22.59
2016-08-05T10:59:14.638Z,22.59
2016-08-05T11:00:12.846Z,22.60
2016-08-05T11:01:27.819Z,22.59
2016-08-05T11:02:21.090Z,22.58
2016-08-05T11:03:30.876Z,22.60
2016-08-05T11:04:12.762Z,22.60
2016-08-05T11:05:27.112Z,22.60
2016-08-05T11:06:22.821Z,22.60
2016-08-05T11:07:16.346Z,22.60
2016-08-05T11:08:26.975Z,22.65
2016-08-05T11:09:26.398Z,22.60
2016-08-05T11:10:13.014Z,22.60
2016-08-05T11:11:26.319Z,22.59
2016-08-05T11:12:21.909Z,22.59
2016-08-05T11:13:25.646Z,22.59
2016-08-05T11:14:23.772Z,22.59
2016-08-05T11:15:30.131Z,22.62
2016-08-05T11:16:27.198Z,22.60
2016-08-05T11:17:13.753Z,22.60
2016-08-05T11:18:18.757Z,22.60
2016-08-05T11:19:12.802Z,22.60
2016-08-05T11:20:19.996Z,22.60
2016-08-05T11:21:22.015Z,22.60
2016-08-05T11:22:24.131Z,22.60
2016-08-05T11:23:13.863Z,22.60
2016-08-05T11:24:21.118Z,23.12
2016-08-05T11:25:21.103Z,23.17
2016-08-05T11:26:32.678Z,22.68
2016-08-05T11:27:17.882Z,22.66
2016-08-05T11:28:19.434Z,22.62
2016-08-05T11:29:24.966Z,22.62
2016-08-05T11:30:32.839Z,22.60
2016-08-05T11:31:22.800Z,22.61
2016-08-05T11:32:24.105Z,22.60
2016-08-05T11:33:25.303Z,22.60
2016-08-05T11:34:13.441Z,22.60
2016-08-05T11:35:36.752Z,22.60
2016-08-05T11:36:12.730Z,22.60
2016-08-05T11:37:17.406Z,22.60
2016-08-05T11:38:13.529Z,22.60
2016-08-05T11:39:17.743Z,22.60
2016-08-05T11:40:31.719Z,22.59
2016-08-05T11:41:20.505Z,22.59
2016-08-05T11:42:20.104Z,22.60
2016-08-05T11:43:13.242Z,22.61
2016-08-05T11:44:26.335Z,22.60
2016-08-05T11:45:24.972Z,22.63
2016-08-05T11:46:23.773Z,22.60
2016-08-05T11:47:13.971Z,22.59
2016-08-05T11:48:27.879Z,22.60
2016-08-05T11:49:19.076Z,22.59
2016-08-05T11:50:22.800Z,22.58
2016-08-05T11:51:20.200Z,22.58
2016-08-05T11:52:39.083Z,22.60
2016-08-05T11:53:13.778Z,22.58
2016-08-05T11:54:12.424Z,22.58
2016-08-05T11:55:24.922Z,22.59
2016-08-05T11:56:22.833Z,22.58
2016-08-05T11:57:21.125Z,22.59
2016-08-05T11:58:14.252Z,22.59
2016-08-05T11:59:18.911Z,22.58
2016-08-05T12:00:19.079Z,22.57
2016-08-05T12:01:22.133Z,22.58
2016-08-05T12:02:32.874Z,22.58
2016-08-05T12:03:20.758Z,22.57
2016-08-05T12:04:28.037Z,22.61
2016-08-05T12:05:12.888Z,22.58
2016-08-05T12:06:20.515Z,22.58
2016-08-05T12:07:30.500Z,22.57
2016-08-05T12:08:22.082Z,22.57
2016-08-05T12:09:25.153Z,22.57
2016-08-05T12:10:15.554Z,22.58
2016-08-05T12:11:11.861Z,22.57
2016-08-05T12:12:13.408Z,22.57
2016-08-05T12:13:27.138Z,22.57
2016-08-05T12:14:32.279Z,22.57
2016-08-05T12:15:21.887Z,22.56
2016-08-05T12:16:26.104Z,22.56
2016-08-05T12:17:34.930Z,22.57
2016-08-05T12:18:14.567Z,22.56
2016-08-05T12:19:26.144Z,22.56
2016-08-05T12:20:14.547Z,22.56
2016-08-05T12:21:21.706Z,22.56
2016-08-05T12:22:22.786Z,22.55
2016-08-05T12:23:25.965Z,22.56
2016-08-05T12:24:13.029Z,22.56
2016-08-05T12:25:27.969Z,22.56
2016-08-05T12:26:12.501Z,22.55
2016-08-05T12:27:31.999Z,22.55
2016-08-05T12:28:10.875Z,22.55
2016-08-05T12:29:20.644Z,22.58
2016-08-05T12:30:20.950Z,22.56
2016-08-05T12:31:25.827Z,22.56
2016-08-05T12:32:12.953Z,22.57
2016-08-05T12:33:13.106Z,22.59
2016-08-05T12:34:14.168Z,22.56
2016-08-05T12:35:18.486Z,22.56
2016-08-05T12:36:13.919Z,22.55
2016-08-05T12:37:12.988Z,22.60
2016-08-05T12:38:13.856Z,22.55
2016-08-05T12:39:26.235Z,22.55
2016-08-05T12:40:26.986Z,22.56
2016-08-05T12:41:20.031Z,22.55
2016-08-05T12:43:32.846Z,22.54
2016-08-05T12:44:28.763Z,22.54
2016-08-05T12:45:23.242Z,22.55
2016-08-05T12:46:29.406Z,22.54
2016-08-05T12:47:17.421Z,22.54
2016-08-05T12:48:21.030Z,22.53
2016-08-05T12:49:17.020Z,22.54
2016-08-05T12:50:16.540Z,22.56
2016-08-05T12:51:15.448Z,22.53
2016-08-05T12:52:21.776Z,22.53
2016-08-05T12:53:27.842Z,22.53
2016-08-05T12:54:12.379Z,22.53
2016-08-05T12:55:26.779Z,22.54
2016-08-05T12:56:14.611Z,22.55
2016-08-05T12:58:39.356Z,22.53
2016-08-05T12:59:26.629Z,22.53
2016-08-05T13:00:19.086Z,22.53
2016-08-05T13:01:14.175Z,22.53
2016-08-05T13:02:13.106Z,22.52
2016-08-05T13:03:19.107Z,22.53
2016-08-05T13:04:21.082Z,22.53